createdAt,value
2022-10-09T00:00:08.741Z,6.77
2022-10-09T00:02:39.281Z,5.22
2022-10-09T00:05:07.456Z,8.10
2022-10-09T00:07:34.890Z,7.38
2022-10-09T00:10:02.279Z,6.50
2022-10-09T00:12:29.628Z,7.38
2022-10-09T00:14:58.431Z,6.90
2022-10-09T00:17:25.841Z,8.10
2022-10-09T00:19:53.198Z,5.28
2022-10-09T00:22:20.555Z,6.78
2022-10-09T00:24:47.940Z,6.57
2022-10-09T00:27:15.300Z,7.35
2022-10-09T00:29:42.689Z,4.97
2022-10-09T00:32:11.547Z,7.32
2022-10-09T00:34:38.935Z,6.00
2022-10-09T00:37:06.272Z,6.25
2022-10-09T00:39:33.678Z,6.20
2022-10-09T00:42:01.461Z,6.93
2022-10-09T00:44:54.505Z,5.90
2022-10-09T00:47:28.620Z,6.78
2022-10-09T00:50:00.624Z,6.97
2022-10-09T00:52:28.297Z,5.75
2022-10-09T00:54:57.382Z,7.07
2022-10-09T00:57:26.266Z,6.10
2022-10-09T00:59:53.856Z,5.53
2022-10-09T01:02:23.098Z,7.63
2022-10-09T01:04:50.969Z,5.97
2022-10-09T01:07:43.564Z,6.50
2022-10-09T01:10:24.467Z,5.25
2022-10-09T01:13:01.814Z,6.50
2022-10-09T01:15:33.640Z,6.10
2022-10-09T01:18:09.255Z,6.82
2022-10-09T01:20:49.123Z,6.55
2022-10-09T01:23:42.191Z,5.97
2022-10-09T01:26:29.574Z,4.78
2022-10-09T01:29:02.331Z,6.30
2022-10-09T01:31:33.886Z,7.22
2022-10-09T01:34:02.886Z,6.15
2022-10-09T01:36:31.480Z,5.40
2022-10-09T01:39:02.238Z,4.75
2022-10-09T01:41:30.362Z,5.38
2022-10-09T01:43:59.893Z,5.88
2022-10-09T01:46:30.597Z,5.07
2022-10-09T01:49:14.783Z,5.05
2022-10-09T01:51:51.611Z,4.57
2022-10-09T01:54:26.151Z,5.88
2022-10-09T01:56:55.778Z,6.95
2022-10-09T01:59:27.361Z,4.60
2022-10-09T02:01:58.011Z,6.35
2022-10-09T02:04:27.052Z,5.57
2022-10-09T02:06:55.280Z,4.38
2022-10-09T02:09:24.522Z,4.85
2022-10-09T02:11:55.752Z,9.00
2022-10-09T02:14:25.168Z,6.45
2022-10-09T02:16:59.277Z,4.22
2022-10-09T02:19:32.224Z,5.68
2022-10-09T02:22:05.872Z,5.13
2022-10-09T02:24:33.563Z,6.43
2022-10-09T02:27:02.544Z,4.85
2022-10-09T02:29:31.832Z,6.28
2022-10-09T02:31:59.343Z,6.43
2022-10-09T02:34:27.045Z,6.80
2022-10-09T02:36:54.388Z,11.10
2022-10-09T02:39:21.786Z,7.18
2022-10-09T02:41:49.176Z,9.45
2022-10-09T02:44:16.542Z,6.55
2022-10-09T02:46:45.447Z,5.07
2022-10-09T02:49:12.846Z,5.53
2022-10-09T02:51:40.221Z,6.47
2022-10-09T02:54:07.771Z,6.10
2022-10-09T02:56:38.785Z,4.45
2022-10-09T02:59:06.878Z,4.90
2022-10-09T03:01:34.486Z,5.53
2022-10-09T03:04:03.673Z,5.18
2022-10-09T03:06:31.378Z,4.03
2022-10-09T03:08:58.854Z,4.90
2022-10-09T03:11:26.972Z,6.05
2022-10-09T03:13:55.164Z,5.57
2022-10-09T03:16:24.688Z,6.78
2022-10-09T03:18:53.439Z,8.70
2022-10-09T03:21:25.116Z,7.32
2022-10-09T03:23:53.169Z,7.90
2022-10-09T03:26:22.660Z,5.32
2022-10-09T03:28:51.609Z,5.43
2022-10-09T03:31:50.681Z,5.97
2022-10-09T03:34:08.480Z,4.13
2022-10-09T03:36:37.299Z,4.00
2022-10-09T03:39:04.884Z,4.20
2022-10-09T03:41:32.253Z,4.32
2022-10-09T03:43:59.646Z,4.53
2022-10-09T03:46:27.155Z,4.25
2022-10-09T03:48:55.068Z,4.15
2022-10-09T03:51:22.523Z,4.38
2022-10-09T03:53:51.369Z,4.78
2022-10-09T03:56:18.721Z,5.47
2022-10-09T03:58:46.144Z,8.80
2022-10-09T04:01:13.556Z,16.50
2022-10-09T04:03:41.232Z,10.48
2022-10-09T04:06:08.576Z,10.88
2022-10-09T04:08:36.261Z,5.47
2022-10-09T04:11:05.280Z,9.52
2022-10-09T04:13:32.672Z,6.47
2022-10-09T04:16:00.067Z,6.85
2022-10-09T04:18:27.435Z,7.43
2022-10-09T04:20:56.745Z,9.05
2022-10-09T04:23:26.311Z,6.13
2022-10-09T04:25:54.059Z,5.90
2022-10-09T04:28:23.380Z,8.10
2022-10-09T04:30:51.233Z,9.10
2022-10-09T04:33:18.927Z,7.30
2022-10-09T04:35:51.375Z,7.88
2022-10-09T04:38:19.385Z,7.97
2022-10-09T04:40:56.067Z,6.28
2022-10-09T04:43:25.914Z,6.13
2022-10-09T04:45:53.381Z,7.50
2022-10-09T04:48:21.055Z,7.15
2022-10-09T04:50:48.538Z,8.30
2022-10-09T04:53:16.133Z,8.02
2022-10-09T04:55:44.379Z,7.03
2022-10-09T04:58:12.468Z,9.00
2022-10-09T05:00:42.445Z,5.38
2022-10-09T05:03:10.840Z,6.85
2022-10-09T05:05:38.584Z,7.20
2022-10-09T05:08:06.219Z,7.28
2022-10-09T05:10:34.162Z,8.40
2022-10-09T05:13:02.017Z,6.00
2022-10-09T05:15:29.439Z,6.88
2022-10-09T05:17:58.440Z,6.45
2022-10-09T05:20:26.407Z,8.70
2022-10-09T05:22:53.781Z,8.65
2022-10-09T05:25:21.275Z,8.13
2022-10-09T05:27:48.619Z,11.65
2022-10-09T05:30:16.123Z,8.43
2022-10-09T05:32:43.553Z,9.27
2022-10-09T05:35:12.323Z,8.75
2022-10-09T05:37:39.705Z,9.17
2022-10-09T05:40:08.487Z,8.50
2022-10-09T05:42:35.909Z,9.00
2022-10-09T05:45:03.723Z,9.93
2022-10-09T05:47:31.289Z,8.75
2022-10-09T05:49:58.737Z,8.02
2022-10-09T05:52:27.562Z,9.82
2022-10-09T05:54:55.188Z,10.50
2022-10-09T05:57:22.580Z,9.63
2022-10-09T05:59:49.908Z,10.65
2022-10-09T06:02:17.428Z,8.20
2022-10-09T06:04:44.792Z,11.63
2022-10-09T06:07:12.161Z,10.30
2022-10-09T06:09:41.002Z,9.55
2022-10-09T06:12:08.377Z,10.50
2022-10-09T06:14:35.717Z,9.98
2022-10-09T06:17:03.125Z,9.52
2022-10-09T06:19:31.030Z,8.15
2022-10-09T06:21:58.371Z,15.73
2022-10-09T06:24:29.163Z,12.27
2022-10-09T06:26:58.554Z,12.68
2022-10-09T06:29:26.142Z,10.55
2022-10-09T06:31:53.887Z,11.75
2022-10-09T06:34:21.383Z,10.85
2022-10-09T06:36:48.892Z,10.15
2022-10-09T06:39:16.637Z,12.35
2022-10-09T06:41:43.996Z,9.10
2022-10-09T06:44:26.093Z,8.88
2022-10-09T06:46:53.439Z,10.07
2022-10-09T06:49:20.790Z,8.18
2022-10-09T06:51:48.369Z,9.93
2022-10-09T06:54:15.949Z,10.20
2022-10-09T06:56:43.420Z,10.13
2022-10-09T06:59:11.905Z,9.30
2022-10-09T07:01:41.380Z,8.98
2022-10-09T07:04:11.925Z,8.93
2022-10-09T07:06:40.663Z,10.68
2022-10-09T07:09:10.766Z,8.40
2022-10-09T07:11:39.867Z,10.82
2022-10-09T07:14:09.386Z,11.77
2022-10-09T07:16:39.286Z,9.18
2022-10-09T07:19:10.380Z,8.68
2022-10-09T07:21:39.444Z,8.85
2022-10-09T07:24:07.346Z,8.18
2022-10-09T07:26:36.710Z,8.20
2022-10-09T07:29:05.459Z,8.88
2022-10-09T07:31:32.906Z,9.20
2022-10-09T07:34:00.669Z,11.45
2022-10-09T07:36:29.489Z,9.30
2022-10-09T07:38:58.225Z,7.87
2022-10-09T07:41:27.393Z,8.90
2022-10-09T07:43:55.129Z,9.35
2022-10-09T07:46:24.323Z,9.18
2022-10-09T07:48:51.911Z,8.68
2022-10-09T07:51:21.454Z,8.70
2022-10-09T07:53:50.868Z,6.88
2022-10-09T07:56:19.677Z,10.55
2022-10-09T07:58:50.376Z,8.20
2022-10-09T08:01:20.331Z,6.57
2022-10-09T08:03:48.964Z,6.25
2022-10-09T08:06:16.783Z,7.18
2022-10-09T08:08:44.778Z,8.93
2022-10-09T08:11:15.456Z,8.23
2022-10-09T08:13:43.583Z,8.43
2022-10-09T08:16:11.370Z,7.60
2022-10-09T08:18:38.779Z,7.75
2022-10-09T08:21:08.303Z,6.80
2022-10-09T08:23:36.044Z,6.97
2022-10-09T08:26:04.657Z,7.07
2022-10-09T08:28:33.588Z,8.05
2022-10-09T08:31:01.024Z,8.38
2022-10-09T08:33:28.515Z,7.32
2022-10-09T08:36:05.997Z,8.27
2022-10-09T08:38:46.541Z,9.05
2022-10-09T08:41:26.623Z,9.55
2022-10-09T08:44:01.483Z,9.45
2022-10-09T08:46:34.441Z,10.60
2022-10-09T08:49:04.641Z,8.68
2022-10-09T08:51:37.474Z,6.47
2022-10-09T08:54:13.412Z,7.80
2022-10-09T08:56:40.799Z,9.15
2022-10-09T08:59:12.383Z,7.80
2022-10-09T09:01:45.209Z,7.68
2022-10-09T09:04:33.832Z,7.70
2022-10-09T09:07:09.240Z,8.48
2022-10-09T09:09:46.223Z,10.30
2022-10-09T09:12:22.210Z,8.52
2022-10-09T09:15:03.249Z,9.30
2022-10-09T09:17:37.615Z,9.68
2022-10-09T09:20:12.771Z,9.73
2022-10-09T09:22:45.755Z,9.65
2022-10-09T09:25:20.040Z,8.13
2022-10-09T09:27:48.628Z,8.35
2022-10-09T09:30:20.847Z,8.70
2022-10-09T09:32:56.831Z,7.60
2022-10-09T09:35:32.683Z,9.35
2022-10-09T09:38:00.213Z,7.80
2022-10-09T09:40:37.171Z,8.02
2022-10-09T09:43:14.984Z,8.15
2022-10-09T09:45:44.958Z,11.43
2022-10-09T09:48:16.266Z,10.38
2022-10-09T09:50:53.112Z,8.35
2022-10-09T09:53:32.669Z,8.73
2022-10-09T09:56:00.432Z,12.05
2022-10-09T09:58:35.327Z,18.75
2022-10-09T10:01:06.020Z,24.17
2022-10-09T10:03:34.134Z,15.68
2022-10-09T10:06:01.828Z,10.50
2022-10-09T10:08:31.643Z,10.00
2022-10-09T10:11:01.197Z,10.00
2022-10-09T10:16:00.606Z,7.07
2022-10-09T10:18:37.611Z,8.95
2022-10-09T10:21:09.655Z,10.82
2022-10-09T10:23:41.023Z,10.13
2022-10-09T10:26:19.071Z,11.18
2022-10-09T10:28:51.288Z,8.93
2022-10-09T10:31:31.504Z,10.32
2022-10-09T10:34:05.309Z,9.35
2022-10-09T10:36:34.105Z,6.32
2022-10-09T10:39:08.665Z,9.63
2022-10-09T10:41:40.804Z,8.27
2022-10-09T10:44:15.667Z,7.25
2022-10-09T10:46:49.765Z,7.80
2022-10-09T10:49:21.645Z,7.90
2022-10-09T10:52:06.460Z,6.68
2022-10-09T10:54:39.195Z,8.00
2022-10-09T10:57:14.625Z,7.05
2022-10-09T10:59:54.558Z,6.07
2022-10-09T11:02:54.360Z,6.00
2022-10-09T11:05:29.987Z,8.98
2022-10-09T11:08:08.039Z,7.82
2022-10-09T11:10:43.748Z,8.23
2022-10-09T11:13:19.387Z,8.80
2022-10-09T11:16:01.275Z,10.18
2022-10-09T11:18:43.748Z,8.25
2022-10-09T11:21:30.531Z,7.75
2022-10-09T11:24:18.332Z,8.02
2022-10-09T11:26:59.604Z,11.88
2022-10-09T11:29:34.680Z,10.55
2022-10-09T11:32:10.566Z,14.95
2022-10-09T11:34:42.397Z,16.77
2022-10-09T11:37:18.331Z,22.77
2022-10-09T11:39:46.548Z,26.73
2022-10-09T11:42:25.574Z,9.55
2022-10-09T11:45:04.439Z,8.65
2022-10-09T11:47:39.424Z,9.53
2022-10-09T11:50:34.059Z,9.38
2022-10-09T11:53:08.952Z,11.60
2022-10-09T11:55:36.809Z,16.00
2022-10-09T11:58:09.399Z,9.32
2022-10-09T12:00:37.291Z,9.75
2022-10-09T12:03:07.638Z,12.57
2022-10-09T12:05:41.335Z,7.93
2022-10-09T12:08:16.899Z,10.10
2022-10-09T12:10:52.698Z,10.57
2022-10-09T12:13:47.536Z,8.05
2022-10-09T12:16:40.126Z,9.50
2022-10-09T12:19:20.491Z,10.48
2022-10-09T12:21:54.807Z,7.15
2022-10-09T12:24:26.830Z,9.00
2022-10-09T12:26:56.803Z,8.52
2022-10-09T12:29:27.515Z,14.20
2022-10-09T12:31:59.751Z,16.98
2022-10-09T12:34:31.422Z,8.85
2022-10-09T12:37:20.926Z,8.98
2022-10-09T12:39:50.306Z,8.73
2022-10-09T12:42:21.935Z,7.07
2022-10-09T12:44:50.875Z,10.32
2022-10-09T12:47:22.788Z,9.80
2022-10-09T12:49:58.520Z,8.63
2022-10-09T12:52:25.984Z,7.93
2022-10-09T12:54:55.315Z,7.18
2022-10-09T12:57:24.106Z,10.52
2022-10-09T12:59:55.837Z,13.88
2022-10-09T13:02:23.294Z,6.53
2022-10-09T13:04:59.106Z,8.57
2022-10-09T13:07:29.320Z,10.27
2022-10-09T13:10:05.593Z,9.05
2022-10-09T13:12:34.337Z,8.48
2022-10-09T13:15:03.160Z,6.75
2022-10-09T13:17:32.890Z,8.07
2022-10-09T13:20:02.281Z,11.30
2022-10-09T13:22:33.763Z,8.32
2022-10-09T13:25:06.020Z,9.23
2022-10-09T13:27:35.418Z,8.95
2022-10-09T13:30:04.492Z,11.48
2022-10-09T13:32:32.397Z,10.43
2022-10-09T13:34:59.812Z,10.63
2022-10-09T13:37:27.820Z,8.95
2022-10-09T13:39:56.893Z,8.77
2022-10-09T13:42:28.043Z,8.88
2022-10-09T13:44:55.435Z,9.70
2022-10-09T13:47:24.680Z,9.82
2022-10-09T13:49:52.623Z,9.05
2022-10-09T13:52:20.112Z,9.35
2022-10-09T13:54:47.743Z,9.00
2022-10-09T13:57:15.181Z,9.70
2022-10-09T13:59:43.969Z,11.27
2022-10-09T14:02:12.007Z,10.05
2022-10-09T14:04:39.583Z,10.00
2022-10-09T14:07:07.129Z,12.85
2022-10-09T14:09:34.678Z,10.00
2022-10-09T14:12:02.128Z,9.40
2022-10-09T14:14:29.616Z,10.95
2022-10-09T14:16:58.545Z,11.15
2022-10-09T14:19:25.926Z,9.47
2022-10-09T14:21:53.375Z,9.05
2022-10-09T14:24:20.742Z,8.98
2022-10-09T14:26:51.500Z,7.35
2022-10-09T14:29:19.346Z,8.68
2022-10-09T14:31:46.698Z,11.07
2022-10-09T14:34:15.636Z,9.57
2022-10-09T14:36:43.191Z,12.43
2022-10-09T14:39:10.652Z,10.52
2022-10-09T14:41:38.251Z,8.75
2022-10-09T14:44:05.822Z,11.35
2022-10-09T14:46:33.808Z,10.75
2022-10-09T14:49:01.906Z,10.50
2022-10-09T14:51:34.774Z,11.43
2022-10-09T14:54:07.179Z,9.38
2022-10-09T14:56:34.687Z,12.02
2022-10-09T14:59:02.157Z,8.75
2022-10-09T15:01:29.953Z,11.32
2022-10-09T15:03:59.420Z,9.02
2022-10-09T15:06:27.294Z,8.40
2022-10-09T15:09:01.657Z,10.82
2022-10-09T15:11:34.078Z,11.32
2022-10-09T15:14:02.647Z,12.50
2022-10-09T15:16:30.143Z,9.18
2022-10-09T15:18:57.476Z,11.02
2022-10-09T15:21:27.203Z,11.73
2022-10-09T15:23:58.139Z,10.07
2022-10-09T15:26:27.001Z,12.70
2022-10-09T15:28:54.687Z,10.60
2022-10-09T15:31:25.139Z,9.65
2022-10-09T15:33:54.073Z,10.75
2022-10-09T15:36:22.899Z,11.30
2022-10-09T15:38:50.667Z,12.30
2022-10-09T15:41:25.008Z,11.52
2022-10-09T15:43:56.009Z,10.20
2022-10-09T15:46:23.988Z,11.30
2022-10-09T15:48:52.147Z,10.73
2022-10-09T15:51:20.053Z,13.68
2022-10-09T15:53:49.860Z,11.95
2022-10-09T15:56:21.401Z,12.30
2022-10-09T15:58:51.159Z,12.65
2022-10-09T16:03:46.002Z,13.25
2022-10-09T16:06:16.569Z,12.10
2022-10-09T16:08:44.734Z,16.02
2022-10-09T16:11:13.587Z,14.52
2022-10-09T16:13:43.125Z,13.57
2022-10-09T16:16:14.628Z,14.55
2022-10-09T16:18:41.968Z,12.45
2022-10-09T16:21:11.227Z,13.25
2022-10-09T16:26:06.730Z,13.30
2022-10-09T16:28:35.234Z,14.07
2022-10-09T16:31:03.326Z,11.48
2022-10-09T16:33:32.570Z,15.75
2022-10-09T16:36:10.535Z,9.77
2022-10-09T16:38:38.643Z,12.63
2022-10-09T16:41:08.587Z,13.15
2022-10-09T16:43:37.019Z,12.68
2022-10-09T16:46:18.196Z,13.60
2022-10-09T16:48:47.788Z,13.73
2022-10-09T16:51:16.837Z,18.08
2022-10-09T16:53:44.252Z,14.95
2022-10-09T16:56:13.889Z,13.85
2022-10-09T17:01:10.567Z,13.38
2022-10-09T17:03:38.310Z,14.05
2022-10-09T17:06:09.866Z,17.23
2022-10-09T17:08:37.835Z,15.48
2022-10-09T17:11:07.809Z,14.75
2022-10-09T17:13:35.587Z,14.98
2022-10-09T17:16:05.679Z,12.98
2022-10-09T17:18:33.367Z,16.98
2022-10-09T17:21:02.060Z,14.60
2022-10-09T17:23:33.799Z,16.05
2022-10-09T17:26:05.661Z,15.57
2022-10-09T17:28:34.072Z,16.77
2022-10-09T17:31:03.542Z,14.57
2022-10-09T17:33:31.360Z,15.75
2022-10-09T17:35:58.865Z,14.25
2022-10-09T17:38:26.508Z,13.18
2022-10-09T17:40:55.334Z,17.27
2022-10-09T17:43:22.885Z,14.97
2022-10-09T17:45:50.361Z,15.38
2022-10-09T17:48:18.241Z,14.63
2022-10-09T17:50:51.145Z,14.15
2022-10-09T17:53:20.092Z,14.85
2022-10-09T17:55:47.920Z,15.90
2022-10-09T17:58:17.297Z,12.20
2022-10-09T18:00:45.136Z,15.63
2022-10-09T18:03:12.745Z,16.08
2022-10-09T18:05:44.113Z,14.80
2022-10-09T18:08:11.763Z,17.27
2022-10-09T18:10:39.860Z,14.30
2022-10-09T18:13:08.716Z,12.95
2022-10-09T18:15:39.589Z,16.53
2022-10-09T18:18:07.426Z,13.45
2022-10-09T18:20:35.458Z,15.30
2022-10-09T18:23:03.105Z,11.98
2022-10-09T18:25:31.098Z,14.50
2022-10-09T18:27:58.656Z,15.93
2022-10-09T18:30:26.231Z,15.90
2022-10-09T18:32:55.172Z,14.52
2022-10-09T18:35:22.661Z,15.70
2022-10-09T18:37:50.020Z,16.98
2022-10-09T18:40:17.811Z,13.70
2022-10-09T18:42:45.533Z,17.08
2022-10-09T18:45:15.094Z,14.07
2022-10-09T18:47:42.757Z,13.73
2022-10-09T18:50:13.776Z,12.10
2022-10-09T18:52:43.173Z,15.70
2022-10-09T18:55:12.747Z,17.27
2022-10-09T18:57:42.367Z,12.85
2022-10-09T19:05:11.755Z,14.07
2022-10-09T19:07:39.185Z,15.82
2022-10-09T19:10:07.139Z,12.43
2022-10-09T19:12:34.888Z,13.50
2022-10-09T19:15:02.402Z,13.35
2022-10-09T19:17:29.831Z,12.85
2022-10-09T19:19:57.349Z,13.70
2022-10-09T19:22:26.304Z,12.82
2022-10-09T19:24:53.668Z,13.13
2022-10-09T19:27:25.757Z,12.57
2022-10-09T19:29:54.085Z,13.60
2022-10-09T19:32:23.795Z,14.65
2022-10-09T19:34:51.519Z,12.98
2022-10-09T19:37:19.059Z,11.50
2022-10-09T19:39:48.071Z,11.10
2022-10-09T19:42:16.304Z,11.98
2022-10-09T19:44:44.117Z,11.40
2022-10-09T19:47:11.580Z,13.68
2022-10-09T19:49:38.946Z,11.50
2022-10-09T19:52:06.450Z,13.27
2022-10-09T19:54:34.877Z,13.65
2022-10-09T19:57:04.195Z,12.52
2022-10-09T19:59:32.449Z,14.45
2022-10-09T20:01:59.974Z,14.43
2022-10-09T20:04:27.382Z,14.10
2022-10-09T20:06:55.323Z,12.38
2022-10-09T20:09:22.670Z,13.82
2022-10-09T20:11:50.428Z,13.18
2022-10-09T20:14:19.342Z,13.15
2022-10-09T20:16:46.759Z,13.83
2022-10-09T20:19:14.280Z,16.00
2022-10-09T20:21:41.750Z,13.10
2022-10-09T20:24:09.067Z,18.27
2022-10-09T20:26:42.166Z,16.83
2022-10-09T20:29:10.654Z,20.27
2022-10-09T20:31:39.583Z,17.65
2022-10-09T20:34:06.939Z,17.00
2022-10-09T20:36:36.239Z,20.00
2022-10-09T20:39:05.835Z,18.50
2022-10-09T20:44:02.315Z,20.10
2022-10-09T20:46:31.458Z,20.40
2022-10-09T20:49:02.244Z,19.73
2022-10-09T20:51:30.171Z,21.33
2022-10-09T20:53:59.578Z,21.10
2022-10-09T20:56:29.061Z,21.63
2022-10-09T20:58:58.185Z,21.55
2022-10-09T21:01:26.251Z,24.50
2022-10-09T21:03:55.528Z,26.63
2022-10-09T21:06:24.349Z,23.25
2022-10-09T21:08:51.748Z,24.70
2022-10-09T21:11:19.674Z,19.60
2022-10-09T21:13:48.241Z,24.55
2022-10-09T21:16:18.080Z,13.50
2022-10-09T21:18:45.565Z,21.02
2022-10-09T21:21:15.756Z,20.13
2022-10-09T21:23:45.244Z,16.42
2022-10-09T21:26:13.986Z,20.10
2022-10-09T21:28:41.737Z,21.10
2022-10-09T21:31:10.414Z,17.85
2022-10-09T21:33:37.918Z,16.77
2022-10-09T21:36:09.776Z,18.13
2022-10-09T21:38:38.000Z,18.13
2022-10-09T21:41:06.997Z,18.13
2022-10-09T21:43:34.464Z,15.93
2022-10-09T21:46:01.858Z,18.48
2022-10-09T21:48:29.291Z,19.85
2022-10-09T21:50:57.607Z,18.48
2022-10-09T21:53:24.972Z,19.15
2022-10-09T21:55:52.350Z,18.48
2022-10-09T21:58:21.154Z,16.38
2022-10-09T22:00:55.745Z,15.43
2022-10-09T22:03:24.570Z,15.50
2022-10-09T22:05:52.142Z,16.43
2022-10-09T22:08:19.908Z,13.50
2022-10-09T22:10:47.880Z,12.77
2022-10-09T22:13:15.846Z,14.40
2022-10-09T22:15:48.809Z,15.25
2022-10-09T22:18:19.088Z,16.17
2022-10-09T22:20:50.832Z,13.30
2022-10-09T22:23:19.422Z,13.02
2022-10-09T22:25:56.284Z,13.10
2022-10-09T22:28:23.832Z,10.90
2022-10-09T22:31:03.559Z,14.18
2022-10-09T22:33:31.659Z,11.10
2022-10-09T22:36:07.594Z,12.68
2022-10-09T22:38:35.911Z,11.43
2022-10-09T22:41:05.011Z,12.52
2022-10-09T22:43:32.542Z,10.27
2022-10-09T22:46:04.059Z,10.57
2022-10-09T22:48:31.386Z,11.00
2022-10-09T22:51:01.822Z,12.13
2022-10-09T22:53:29.338Z,9.93
2022-10-09T22:55:56.706Z,11.07
2022-10-09T22:58:24.315Z,10.27
2022-10-09T23:00:52.242Z,9.38
2022-10-09T23:03:21.056Z,9.60
2022-10-09T23:05:48.422Z,10.90
2022-10-09T23:08:15.766Z,8.65
2022-10-09T23:10:43.119Z,9.10
2022-10-09T23:13:10.598Z,10.15
2022-10-09T23:15:37.953Z,8.23
2022-10-09T23:18:05.590Z,10.40
2022-10-09T23:20:37.299Z,8.45
2022-10-09T23:23:04.672Z,8.63
2022-10-09T23:25:32.100Z,11.27
2022-10-09T23:27:59.580Z,8.88
2022-10-09T23:30:26.925Z,9.93
2022-10-09T23:32:54.280Z,9.35
2022-10-09T23:35:22.271Z,10.00
2022-10-09T23:37:52.783Z,12.52
2022-10-09T23:40:20.574Z,10.30
2022-10-09T23:42:48.724Z,11.88
2022-10-09T23:45:16.320Z,9.80
2022-10-09T23:47:43.713Z,8.40
2022-10-09T23:50:11.144Z,10.40
2022-10-09T23:52:38.527Z,10.45
2022-10-09T23:55:08.714Z,9.80
2022-10-09T23:57:36.109Z,9.93
